Time;durP1;ratioP1;P1;durP2;ratioP2;P2;SDS_P1;SDS_P2;PMS_P1;PMS_P2;Temp;Humidity;BMP_temperature;BMP_pressure;BME280_temperature;BME280_humidity;BME280_pressure;Samples;Min_cycle;Max_cycle;Signal;HPM_P1;HPM_P2
2022/06/24 00:00:59;;;;;;;5.50;5.00;;;22.00;65.20;;;;;;2079807;28;20076;-73
2022/06/24 00:02:01;;;;;;;6.13;4.65;;;22.00;65.20;;;;;;2089117;28;20418;-72
2022/06/24 00:03:02;;;;;;;5.63;4.60;;;22.00;65.30;;;;;;2089393;28;20033;-73
2022/06/24 00:04:03;;;;;;;5.18;4.60;;;22.00;65.40;;;;;;2088844;28;20028;-73
2022/06/24 00:05:11;;;;;;;5.75;4.63;;;21.90;65.70;;;;;;2080777;28;20044;-73
2022/06/24 00:06:14;;;;;;;4.80;4.35;;;22.00;65.70;;;;;;2089837;28;20020;-72
2022/06/24 00:07:16;;;;;;;4.47;4.05;;;21.90;65.70;;;;;;2089618;28;20095;-72
2022/06/24 00:08:16;;;;;;;5.10;4.60;;;21.90;65.80;;;;;;2090006;28;20078;-73
2022/06/24 00:09:18;;;;;;;4.68;4.28;;;21.90;65.90;;;;;;2089196;28;20037;-73
2022/06/24 00:10:24;;;;;;;4.55;4.20;;;21.90;65.90;;;;;;2088349;28;20025;-72
2022/06/24 00:11:29;;;;;;;5.50;4.43;;;21.90;66.10;;;;;;2081102;28;20025;-72
2022/06/24 00:12:30;;;;;;;4.97;4.45;;;21.90;66.10;;;;;;2088990;28;20032;-72
2022/06/24 00:13:40;;;;;;;6.30;4.43;;;21.80;66.20;;;;;;2089266;28;20044;-72
2022/06/24 00:14:42;;;;;;;5.90;4.28;;;21.80;66.40;;;;;;2089157;28;20028;-72
2022/06/24 00:15:43;;;;;;;5.10;4.68;;;21.80;66.40;;;;;;2088981;28;20040;-72
2022/06/24 00:17:04;;;;;;;6.47;4.55;;;21.80;66.50;;;;;;2088330;28;20067;-72
2022/06/24 00:18:17;;;;;;;5.70;4.70;;;21.80;66.70;;;;;;2088220;28;20037;-72
2022/06/24 00:19:17;;;;;;;5.68;4.72;;;21.80;66.70;;;;;;2088467;28;20053;-73
2022/06/24 00:20:19;;;;;;;5.68;4.10;;;21.80;66.90;;;;;;2088133;28;20049;-73
2022/06/24 00:21:20;;;;;;;4.88;4.38;;;21.80;66.90;;;;;;2087933;28;20041;-72
2022/06/24 00:22:22;;;;;;;5.00;4.50;;;21.80;67.00;;;;;;2087980;28;20053;-72
2022/06/24 00:23:23;;;;;;;5.75;4.10;;;21.80;67.20;;;;;;2087822;28;20025;-73
2022/06/24 00:24:24;;;;;;;5.38;4.30;;;21.80;67.20;;;;;;2079488;28;20044;-72
2022/06/24 00:25:25;;;;;;;4.60;4.20;;;21.80;67.30;;;;;;2079221;28;20079;-72
2022/06/24 00:26:42;;;;;;;5.82;4.30;;;21.70;67.30;;;;;;2079539;28;20033;-72
2022/06/24 00:28:04;;;;;;;4.50;4.10;;;21.70;67.40;;;;;;2081512;28;20108;-72
2022/06/24 00:29:05;;;;;;;4.68;4.18;;;21.70;67.50;;;;;;2087564;28;20021;-72
2022/06/24 00:30:16;;;;;;;5.50;4.13;;;21.70;67.60;;;;;;2088271;28;20524;-73
2022/06/24 00:31:16;;;;;;;5.10;4.60;;;21.70;67.80;;;;;;2088138;28;20032;-73
2022/06/24 00:32:31;;;;;;;6.25;4.30;;;21.60;67.80;;;;;;2088720;28;20064;-72
2022/06/24 00:33:34;;;;;;;6.22;4.57;;;21.70;67.80;;;;;;2087930;28;20017;-73
2022/06/24 00:34:37;;;;;;;5.00;4.47;;;21.70;67.80;;;;;;2087883;28;20021;-72
2022/06/24 00:35:59;;;;;;;4.75;4.22;;;21.70;67.80;;;;;;2088560;28;20070;-71
2022/06/24 00:37:28;;;;;;;5.32;4.40;;;21.70;67.80;;;;;;2088311;28;20473;-72
2022/06/24 00:38:33;;;;;;;5.82;4.20;;;21.70;68.00;;;;;;2088415;28;20025;-71
2022/06/24 00:39:35;;;;;;;4.80;4.40;;;21.60;68.00;;;;;;2088183;28;20139;-72
2022/06/24 00:40:36;;;;;;;4.63;4.22;;;21.60;68.10;;;;;;2087641;28;20025;-72
2022/06/24 00:41:36;;;;;;;4.60;4.20;;;21.60;68.20;;;;;;2087949;28;20070;-72
2022/06/24 00:42:42;;;;;;;5.03;3.95;;;21.60;68.20;;;;;;2088468;28;20525;-72
2022/06/24 00:43:45;;;;;;;5.38;4.15;;;21.60;68.10;;;;;;2088347;28;20391;-72
2022/06/24 00:44:56;;;;;;;6.43;4.35;;;21.60;68.20;;;;;;2088891;28;20075;-72
2022/06/24 00:46:18;;;;;;;6.90;4.15;;;21.60;68.30;;;;;;2087934;28;20040;-73
2022/06/24 00:47:20;;;;;;;6.07;4.40;;;21.60;68.20;;;;;;2087986;28;20584;-71
2022/06/24 00:48:25;;;;;;;5.93;4.30;;;21.60;68.40;;;;;;2079564;28;20026;-72
2022/06/24 00:49:27;;;;;;;5.30;4.20;;;21.60;68.40;;;;;;2080202;28;20022;-73
2022/06/24 00:50:31;;;;;;;4.50;4.10;;;21.60;68.30;;;;;;2088504;28;20039;-72
2022/06/24 00:51:37;;;;;;;4.93;3.95;;;21.60;68.20;;;;;;2088835;28;20394;-72
2022/06/24 00:52:38;;;;;;;4.85;4.00;;;21.60;68.20;;;;;;2088567;28;20029;-72
2022/06/24 00:53:46;;;;;;;4.55;4.15;;;21.60;68.30;;;;;;2088583;28;20029;-73
2022/06/24 00:54:47;;;;;;;4.68;4.18;;;21.60;68.30;;;;;;2088410;28;20028;-73
2022/06/24 00:55:48;;;;;;;4.07;3.67;;;21.60;68.40;;;;;;2088725;28;20025;-72
2022/06/24 00:56:54;;;;;;;5.90;4.30;;;21.60;68.40;;;;;;2088341;28;20091;-73
2022/06/24 00:57:57;;;;;;;4.38;3.90;;;21.60;68.30;;;;;;2087989;28;20033;-72
2022/06/24 00:59:04;;;;;;;6.38;4.53;;;21.60;68.30;;;;;;2087700;28;20048;-72
2022/06/24 01:00:05;;;;;;;4.32;3.90;;;21.60;68.30;;;;;;2087823;28;20033;-73
2022/06/24 01:01:06;;;;;;;5.47;3.97;;;21.60;68.30;;;;;;2087816;28;20667;-73
2022/06/24 01:02:07;;;;;;;4.50;4.10;;;21.60;68.40;;;;;;2088647;28;20025;-75
2022/06/24 01:03:08;;;;;;;7.20;4.88;;;21.60;68.40;;;;;;2088627;28;20029;-72
2022/06/24 01:04:11;;;;;;;5.32;4.05;;;21.60;68.40;;;;;;2088783;28;20025;-73
2022/06/24 01:05:11;;;;;;;4.88;4.10;;;21.60;68.40;;;;;;2088619;28;20044;-73
2022/06/24 01:06:12;;;;;;;5.35;4.22;;;21.60;68.40;;;;;;2088749;28;20031;-73
2022/06/24 01:07:13;;;;;;;5.45;4.10;;;21.60;68.60;;;;;;2088262;28;20140;-73
2022/06/24 01:08:14;;;;;;;4.97;4.00;;;21.50;68.50;;;;;;2088459;28;20037;-72
2022/06/24 01:09:19;;;;;;;4.40;3.75;;;21.50;68.50;;;;;;2088094;28;20029;-72
2022/06/24 01:10:20;;;;;;;4.55;4.10;;;21.50;68.60;;;;;;2088372;28;20119;-73
2022/06/24 01:11:28;;;;;;;4.50;4.10;;;21.50;68.70;;;;;;2088486;28;20032;-73
2022/06/24 01:12:31;;;;;;;4.60;4.18;;;21.50;68.80;;;;;;2087513;28;20103;-73
2022/06/24 01:13:32;;;;;;;4.40;4.10;;;21.50;68.90;;;;;;2088229;28;20444;-73
2022/06/24 01:14:33;;;;;;;4.47;4.07;;;21.50;68.90;;;;;;2087871;28;20028;-71
2022/06/24 01:15:33;;;;;;;4.50;3.80;;;21.50;68.90;;;;;;2087641;28;20028;-72
2022/06/24 01:16:34;;;;;;;4.70;4.03;;;21.40;68.90;;;;;;2087637;28;20060;-72
2022/06/24 01:17:37;;;;;;;3.88;3.58;;;21.40;69.00;;;;;;2079513;28;20034;-76
2022/06/24 01:18:37;;;;;;;4.38;3.90;;;21.40;69.00;;;;;;2087460;28;20473;-73
2022/06/24 01:19:38;;;;;;;4.40;4.00;;;21.40;69.10;;;;;;2088156;28;20029;-71
2022/06/24 01:20:38;;;;;;;4.50;4.10;;;21.40;69.10;;;;;;2088554;28;20025;-74
2022/06/24 01:21:40;;;;;;;4.40;3.85;;;21.40;69.00;;;;;;2088000;28;20032;-73
2022/06/24 01:22:41;;;;;;;4.93;3.97;;;21.40;69.10;;;;;;2088488;28;20017;-73
2022/06/24 01:23:41;;;;;;;4.32;3.92;;;21.40;69.20;;;;;;2088746;28;20056;-72
2022/06/24 01:24:42;;;;;;;6.30;4.22;;;21.40;69.30;;;;;;2079654;28;20124;-72
2022/06/24 01:25:43;;;;;;;4.45;3.90;;;21.40;69.30;;;;;;2079921;28;20582;-73
2022/06/24 01:26:47;;;;;;;7.38;4.32;;;21.40;69.30;;;;;;2088052;28;20025;-72
2022/06/24 01:27:47;;;;;;;5.22;4.35;;;21.30;69.30;;;;;;2088485;28;20395;-73
2022/06/24 01:28:48;;;;;;;4.40;4.00;;;21.30;69.30;;;;;;2088030;28;20103;-72
2022/06/24 01:29:49;;;;;;;4.40;4.00;;;21.30;69.40;;;;;;2088413;28;20029;-71
2022/06/24 01:30:49;;;;;;;4.68;3.97;;;21.30;69.80;;;;;;2088043;28;20399;-71
2022/06/24 01:31:53;;;;;;;4.55;4.10;;;21.30;69.40;;;;;;2088100;28;20033;-72
2022/06/24 01:32:54;;;;;;;4.50;4.10;;;21.30;69.50;;;;;;2088570;28;20496;-72
2022/06/24 01:33:56;;;;;;;6.05;4.10;;;21.20;69.60;;;;;;2088492;28;20041;-72
2022/06/24 01:34:56;;;;;;;4.30;3.90;;;21.20;69.60;;;;;;2087794;28;20061;-72
2022/06/24 01:35:57;;;;;;;4.32;3.90;;;21.20;69.60;;;;;;2087942;28;20040;-71
2022/06/24 01:36:58;;;;;;;4.20;3.80;;;21.30;69.60;;;;;;2087431;28;20075;-72
2022/06/24 01:37:58;;;;;;;4.20;3.80;;;21.20;69.60;;;;;;2087551;28;20037;-72
2022/06/24 01:38:59;;;;;;;4.60;4.13;;;21.20;69.80;;;;;;2078996;28;20045;-71
2022/06/24 01:40:00;;;;;;;5.22;3.88;;;21.20;70.00;;;;;;2079142;28;20057;-71
2022/06/24 01:41:01;;;;;;;4.70;4.20;;;21.20;70.00;;;;;;2087654;28;20021;-71
2022/06/24 01:42:01;;;;;;;4.03;3.70;;;21.20;70.00;;;;;;2088243;28;20025;-72
2022/06/24 01:43:02;;;;;;;5.60;4.20;;;21.20;69.90;;;;;;2088520;28;20471;-72
2022/06/24 01:44:03;;;;;;;5.05;3.70;;;21.20;70.00;;;;;;2088195;28;20087;-72
2022/06/24 01:45:05;;;;;;;4.35;3.95;;;21.20;70.00;;;;;;2087470;28;20067;-72
2022/06/24 01:46:06;;;;;;;4.38;3.80;;;21.10;70.00;;;;;;2087303;28;20411;-72
2022/06/24 01:47:07;;;;;;;4.20;3.80;;;21.10;69.80;;;;;;2088203;28;20025;-73
2022/06/24 01:48:07;;;;;;;4.05;3.65;;;21.10;70.00;;;;;;2087438;28;20033;-73
2022/06/24 01:49:08;;;;;;;4.53;4.13;;;21.10;70.00;;;;;;2087440;28;20036;-72
2022/06/24 01:50:09;;;;;;;4.07;3.70;;;21.10;70.10;;;;;;2087402;28;20017;-71
2022/06/24 01:51:13;;;;;;;5.55;3.88;;;21.10;70.10;;;;;;2087384;28;20029;-72
2022/06/24 01:52:14;;;;;;;4.53;3.75;;;21.10;70.40;;;;;;2088256;28;20124;-72
2022/06/24 01:53:15;;;;;;;4.63;3.90;;;21.10;70.40;;;;;;2088293;28;20025;-73
2022/06/24 01:54:16;;;;;;;4.50;4.10;;;21.00;70.40;;;;;;2088057;28;20127;-73
2022/06/24 01:55:17;;;;;;;5.25;3.97;;;21.00;70.50;;;;;;2088189;28;20040;-72
2022/06/24 01:56:17;;;;;;;4.20;3.80;;;21.10;70.60;;;;;;2088009;28;20051;-73
2022/06/24 01:57:18;;;;;;;4.65;3.95;;;21.00;70.40;;;;;;2088102;28;20037;-73
2022/06/24 01:58:19;;;;;;;5.18;4.45;;;21.00;70.30;;;;;;2088162;28;20021;-72
2022/06/24 01:59:20;;;;;;;4.38;3.97;;;21.00;70.20;;;;;;2086902;28;20033;-72
2022/06/24 02:00:21;;;;;;;4.40;4.00;;;21.00;70.30;;;;;;2087148;28;20179;-72
2022/06/24 02:01:21;;;;;;;3.85;3.50;;;21.00;70.40;;;;;;2087977;28;20083;-71
2022/06/24 02:02:22;;;;;;;4.57;4.03;;;21.00;70.50;;;;;;2088364;28;20165;-73
2022/06/24 02:03:22;;;;;;;4.30;3.90;;;21.00;70.40;;;;;;2088287;28;20394;-73
2022/06/24 02:04:23;;;;;;;4.30;3.88;;;21.00;70.40;;;;;;2088250;28;20563;-73
2022/06/24 02:05:26;;;;;;;4.40;4.00;;;21.00;70.50;;;;;;2088302;28;20471;-73
2022/06/24 02:06:27;;;;;;;7.45;4.00;;;21.00;70.60;;;;;;2087720;28;20029;-72
2022/06/24 02:07:27;;;;;;;6.07;4.35;;;21.00;70.50;;;;;;2079619;28;20040;-73
2022/06/24 02:08:28;;;;;;;6.63;4.03;;;21.00;70.60;;;;;;2087490;28;20368;-72
2022/06/24 02:09:29;;;;;;;4.43;3.97;;;21.00;70.60;;;;;;2088454;28;20464;-73
2022/06/24 02:13:26;;;;;;;6.07;4.10;;;21.00;70.50;;;;;;2087973;28;20092;-74
2022/06/24 02:14:28;;;;;;;4.55;4.10;;;21.00;70.50;;;;;;2081850;28;20032;-72
2022/06/24 02:15:28;;;;;;;4.45;3.75;;;21.00;70.40;;;;;;2079141;28;20463;-74
2022/06/24 02:16:29;;;;;;;4.90;3.92;;;21.00;70.60;;;;;;2087731;28;20049;-72
2022/06/24 02:17:30;;;;;;;4.57;4.05;;;21.00;70.50;;;;;;2088243;28;20013;-73
2022/06/24 02:18:32;;;;;;;4.43;4.00;;;21.00;70.40;;;;;;2087873;28;20625;-72
2022/06/24 02:19:33;;;;;;;3.92;3.60;;;21.00;70.60;;;;;;2087569;28;20087;-73
2022/06/24 02:20:34;;;;;;;5.88;4.00;;;21.00;70.60;;;;;;2087573;28;20079;-72
2022/06/24 02:21:35;;;;;;;5.65;4.00;;;20.90;70.70;;;;;;2087886;28;20059;-72
2022/06/24 02:22:36;;;;;;;7.00;4.00;;;20.90;70.50;;;;;;2086981;28;20025;-73
2022/06/24 02:23:37;;;;;;;4.30;3.83;;;20.90;70.70;;;;;;2079030;28;20073;-72
2022/06/24 02:24:37;;;;;;;5.63;4.15;;;20.90;70.70;;;;;;2088772;28;20050;-73
2022/06/24 02:25:38;;;;;;;5.40;4.28;;;20.90;70.90;;;;;;2097125;28;20492;-73
2022/06/24 02:26:40;;;;;;;4.35;3.80;;;20.90;71.70;;;;;;2089533;28;20539;-72
2022/06/24 02:27:40;;;;;;;5.07;4.18;;;20.90;70.90;;;;;;2089521;28;20586;-72
2022/06/24 02:28:41;;;;;;;4.90;4.00;;;20.90;70.90;;;;;;2089169;28;20100;-73
2022/06/24 02:29:42;;;;;;;4.80;4.13;;;20.90;70.90;;;;;;2089208;28;20091;-73
2022/06/24 02:30:44;;;;;;;4.63;4.13;;;20.90;70.90;;;;;;2089265;28;20104;-72
2022/06/24 02:31:44;;;;;;;4.40;4.00;;;20.90;70.90;;;;;;2090560;28;20036;-73
2022/06/24 02:32:45;;;;;;;5.75;3.90;;;20.90;70.90;;;;;;2090800;28;20035;-72
2022/06/24 02:33:46;;;;;;;4.95;3.97;;;20.90;70.90;;;;;;2090613;28;20028;-74
2022/06/24 02:34:47;;;;;;;5.93;4.07;;;20.90;70.90;;;;;;2090761;28;20095;-73
2022/06/24 02:35:48;;;;;;;4.22;3.83;;;20.90;71.00;;;;;;2091148;28;20036;-73
2022/06/24 02:36:49;;;;;;;4.53;4.13;;;20.90;71.10;;;;;;2091071;28;20036;-73
2022/06/24 02:37:49;;;;;;;5.68;4.00;;;20.90;71.10;;;;;;2091621;28;20036;-73
2022/06/24 02:38:50;;;;;;;5.18;4.20;;;20.90;71.30;;;;;;2091131;28;20033;-73
2022/06/24 02:39:51;;;;;;;5.72;4.10;;;20.80;71.20;;;;;;2089347;28;20118;-73
2022/06/24 02:40:52;;;;;;;5.93;4.03;;;20.90;71.40;;;;;;2089090;28;20060;-72
2022/06/24 02:41:53;;;;;;;4.78;3.90;;;20.80;71.30;;;;;;2089109;28;20037;-73
2022/06/24 02:42:57;;;;;;;6.10;4.18;;;20.80;71.40;;;;;;2088495;28;20044;-73
2022/06/24 02:43:58;;;;;;;4.63;4.13;;;20.80;71.50;;;;;;2080822;28;20021;-73
2022/06/24 02:44:58;;;;;;;5.78;4.13;;;20.80;71.60;;;;;;2088530;28;20804;-72
2022/06/24 02:46:01;;;;;;;5.70;4.30;;;20.80;71.60;;;;;;2089297;28;20044;-72
2022/06/24 02:47:03;;;;;;;6.28;4.20;;;20.80;71.60;;;;;;2088559;28;20503;-73
2022/06/24 02:48:04;;;;;;;5.63;4.10;;;20.80;71.60;;;;;;2080868;28;20423;-73
2022/06/24 02:49:05;;;;;;;4.97;4.15;;;20.80;71.60;;;;;;2079898;28;20403;-72
2022/06/24 02:50:06;;;;;;;4.75;4.25;;;20.80;71.60;;;;;;2088516;28;20052;-73
2022/06/24 02:51:08;;;;;;;4.22;3.60;;;20.80;71.80;;;;;;2089552;28;20029;-74
2022/06/24 02:52:09;;;;;;;5.75;4.18;;;20.80;71.70;;;;;;2089224;28;20071;-72
2022/06/24 02:53:11;;;;;;;5.38;4.15;;;20.80;71.90;;;;;;2089236;28;20340;-74
2022/06/24 02:54:11;;;;;;;5.97;3.97;;;20.80;71.90;;;;;;2089226;28;20438;-73
2022/06/24 02:55:12;;;;;;;5.32;4.05;;;20.80;71.80;;;;;;2088249;28;20033;-73
2022/06/24 02:56:14;;;;;;;4.18;3.78;;;20.80;71.90;;;;;;2088499;28;20063;-73
2022/06/24 02:57:15;;;;;;;5.20;4.00;;;20.70;71.90;;;;;;2089130;28;20104;-73
2022/06/24 02:58:16;;;;;;;4.80;4.40;;;20.70;72.00;;;;;;2088956;28;20313;-73
2022/06/24 02:59:17;;;;;;;6.78;4.30;;;20.70;72.00;;;;;;2088880;28;20063;-74
2022/06/24 03:00:18;;;;;;;5.00;4.50;;;20.70;72.30;;;;;;2088283;28;20037;-72
2022/06/24 03:01:18;;;;;;;5.72;3.85;;;20.80;72.20;;;;;;2088409;28;20029;-73
2022/06/24 03:02:19;;;;;;;5.50;4.00;;;20.70;72.10;;;;;;2089069;28;20028;-72
2022/06/24 03:03:21;;;;;;;5.22;4.25;;;20.70;72.20;;;;;;2089246;28;20079;-72
2022/06/24 03:04:22;;;;;;;5.00;4.20;;;20.70;72.20;;;;;;2089367;28;20057;-72
2022/06/24 03:05:23;;;;;;;4.30;3.90;;;20.70;72.40;;;;;;2089165;28;20030;-73
2022/06/24 03:06:23;;;;;;;4.22;3.83;;;20.70;72.30;;;;;;2089445;28;20025;-73
2022/06/24 03:07:24;;;;;;;5.00;4.53;;;20.70;72.30;;;;;;2088783;28;20029;-73
2022/06/24 03:08:26;;;;;;;5.45;4.40;;;20.70;72.50;;;;;;2088721;28;20040;-73
2022/06/24 03:09:26;;;;;;;5.60;4.13;;;20.70;72.40;;;;;;2088266;28;20116;-73
2022/06/24 03:10:27;;;;;;;7.45;4.15;;;20.70;72.50;;;;;;2088317;28;20104;-74
2022/06/24 03:11:28;;;;;;;5.30;4.20;;;20.70;72.50;;;;;;2089035;28;20108;-73
2022/06/24 03:12:28;;;;;;;6.13;4.15;;;20.70;72.70;;;;;;2088195;28;20047;-73
2022/06/24 03:13:29;;;;;;;4.38;3.92;;;20.70;72.90;;;;;;2088397;28;20036;-73
2022/06/24 03:14:30;;;;;;;6.47;4.35;;;20.60;72.90;;;;;;2089112;28;20120;-74
2022/06/24 03:15:31;;;;;;;4.45;3.83;;;20.60;73.60;;;;;;2088218;28;20013;-73
2022/06/24 03:16:32;;;;;;;6.38;4.25;;;20.60;73.90;;;;;;2088150;28;20051;-73
2022/06/24 03:17:32;;;;;;;4.85;4.00;;;20.60;74.00;;;;;;2088951;28;20025;-73
2022/06/24 03:18:33;;;;;;;5.30;3.95;;;20.60;74.10;;;;;;2088673;28;20567;-73
2022/06/24 03:19:34;;;;;;;5.53;4.10;;;20.60;73.90;;;;;;2088286;28;20033;-73
2022/06/24 03:20:34;;;;;;;5.93;4.40;;;20.50;73.80;;;;;;2088408;28;20080;-72
2022/06/24 03:21:35;;;;;;;5.18;4.13;;;20.50;73.90;;;;;;2088290;28;20817;-72
2022/06/24 03:22:36;;;;;;;6.03;4.30;;;20.50;74.10;;;;;;2088197;28;20047;-73
2022/06/24 03:23:37;;;;;;;4.90;4.35;;;20.50;74.20;;;;;;2088219;28;20020;-73
2022/06/24 03:24:38;;;;;;;6.75;4.22;;;20.50;74.10;;;;;;2088383;28;20056;-74
2022/06/24 03:25:38;;;;;;;5.85;4.70;;;20.50;74.50;;;;;;2089051;28;20025;-74
2022/06/24 03:26:39;;;;;;;4.70;4.15;;;20.50;74.20;;;;;;2088836;28;20029;-74
2022/06/24 03:27:40;;;;;;;4.40;4.00;;;20.50;74.00;;;;;;2088912;28;20021;-73
2022/06/24 03:28:40;;;;;;;7.20;4.50;;;20.50;74.20;;;;;;2087870;28;20029;-74
2022/06/24 03:29:41;;;;;;;5.72;4.43;;;20.50;74.70;;;;;;2088236;28;20071;-73
2022/06/24 03:30:42;;;;;;;4.50;4.10;;;20.50;74.70;;;;;;2096623;28;20036;-73
2022/06/24 03:31:42;;;;;;;4.55;4.10;;;20.60;75.00;;;;;;2088328;28;20112;-73
2022/06/24 03:32:43;;;;;;;5.97;4.30;;;20.60;75.20;;;;;;2088349;28;20119;-73
2022/06/24 03:33:45;;;;;;;4.30;3.92;;;20.60;75.40;;;;;;2088875;28;20103;-73
2022/06/24 03:34:45;;;;;;;4.43;3.83;;;20.60;75.60;;;;;;2088245;28;20103;-73
2022/06/24 03:35:46;;;;;;;4.10;3.70;;;20.60;75.70;;;;;;2087401;28;20415;-73
2022/06/24 03:36:47;;;;;;;4.50;3.80;;;20.60;75.60;;;;;;2088178;28;20503;-72
2022/06/24 03:37:48;;;;;;;4.65;4.13;;;20.60;75.60;;;;;;2088178;28;20029;-73
2022/06/24 03:38:48;;;;;;;4.75;3.90;;;20.50;75.50;;;;;;2096254;28;20138;-74
2022/06/24 03:39:49;;;;;;;4.45;3.90;;;20.50;75.30;;;;;;2087998;28;20076;-73
2022/06/24 03:40:50;;;;;;;5.10;4.00;;;20.50;75.00;;;;;;2088206;28;20426;-74
2022/06/24 03:41:50;;;;;;;6.47;4.30;;;20.50;74.80;;;;;;2088171;28;20021;-73
2022/06/24 03:42:51;;;;;;;6.05;4.13;;;20.50;74.60;;;;;;2079699;28;20981;-73
2022/06/24 03:43:52;;;;;;;6.57;4.45;;;20.60;74.30;;;;;;2088444;28;20387;-74
2022/06/24 03:44:52;;;;;;;4.28;3.88;;;20.60;73.90;;;;;;2088239;28;20029;-74
2022/06/24 03:46:01;;;;;;;6.70;4.35;;;20.60;73.60;;;;;;2089026;28;20029;-74
2022/06/24 03:47:02;;;;;;;4.82;4.20;;;20.60;73.70;;;;;;2088759;28;20033;-74
2022/06/24 03:48:03;;;;;;;6.20;4.25;;;20.60;73.60;;;;;;2088785;28;20028;-73
2022/06/24 03:49:04;;;;;;;5.32;4.20;;;20.70;73.70;;;;;;2087857;28;20676;-73
2022/06/24 03:50:05;;;;;;;5.93;3.95;;;20.70;73.50;;;;;;2088204;28;20032;-73
2022/06/24 03:51:06;;;;;;;8.95;4.80;;;20.70;73.40;;;;;;2088686;28;20116;-73
2022/06/24 03:52:07;;;;;;;4.55;4.10;;;20.70;73.40;;;;;;2087996;28;20029;-74
2022/06/24 03:53:08;;;;;;;4.55;4.10;;;20.70;73.20;;;;;;2088006;28;20087;-73
2022/06/24 03:54:08;;;;;;;4.70;4.30;;;20.80;73.20;;;;;;2088787;28;20114;-74
2022/06/24 03:55:09;;;;;;;4.40;4.00;;;20.80;73.30;;;;;;2088190;28;20017;-74
2022/06/24 03:56:10;;;;;;;5.75;4.25;;;20.80;73.20;;;;;;2088253;28;20043;-73
2022/06/24 03:57:11;;;;;;;5.32;4.00;;;20.90;73.10;;;;;;2088745;28;20066;-74
2022/06/24 03:58:12;;;;;;;4.60;4.20;;;20.90;73.00;;;;;;2088576;28;20484;-74
2022/06/24 03:59:13;;;;;;;5.78;4.10;;;20.90;72.80;;;;;;2088159;28;20025;-74
2022/06/24 04:00:14;;;;;;;5.93;4.10;;;20.90;72.90;;;;;;2088393;28;20029;-74
2022/06/24 04:01:14;;;;;;;4.40;4.00;;;21.00;72.80;;;;;;2088421;28;20029;-74
2022/06/24 04:02:15;;;;;;;4.50;4.10;;;21.00;72.80;;;;;;2088644;28;20739;-71
2022/06/24 04:03:15;;;;;;;5.05;4.35;;;21.00;72.80;;;;;;2088664;28;20430;-72
2022/06/24 04:04:16;;;;;;;5.32;4.38;;;21.10;72.50;;;;;;2088250;28;20029;-72
2022/06/24 04:05:17;;;;;;;4.85;4.07;;;21.30;71.70;;;;;;2079691;28;20037;-73
2022/06/24 04:06:18;;;;;;;4.47;3.90;;;21.60;71.20;;;;;;2087971;28;20090;-73
2022/06/24 04:07:18;;;;;;;7.53;4.25;;;22.00;70.20;;;;;;2088504;28;20025;-72
2022/06/24 04:08:19;;;;;;;6.18;4.07;;;22.30;68.70;;;;;;2087867;28;20048;-72
2022/06/24 04:09:20;;;;;;;4.78;3.90;;;22.80;67.80;;;;;;2079532;28;20099;-73
2022/06/24 04:10:20;;;;;;;4.50;3.80;;;23.20;66.10;;;;;;2087937;28;20025;-73
2022/06/24 04:11:21;;;;;;;4.10;3.70;;;23.60;65.00;;;;;;2088598;28;20020;-74
2022/06/24 04:12:22;;;;;;;4.15;3.72;;;24.00;63.90;;;;;;2088580;28;20025;-73
2022/06/24 04:13:23;;;;;;;3.90;3.47;;;24.60;62.40;;;;;;2088497;28;20028;-73
2022/06/24 04:15:49;;;;;;;4.43;3.58;;;25.20;59.50;;;;;;2088482;28;20116;-73
2022/06/24 04:16:50;;;;;;;4.38;3.50;;;25.30;58.90;;;;;;2088549;28;20043;-72
2022/06/24 04:17:51;;;;;;;5.47;3.70;;;25.80;58.50;;;;;;2088453;28;20032;-73
2022/06/24 04:18:52;;;;;;;4.25;3.83;;;25.90;57.50;;;;;;2088274;28;20131;-73
2022/06/24 04:19:53;;;;;;;7.72;3.90;;;25.90;56.70;;;;;;2087841;28;20037;-73
2022/06/24 04:20:54;;;;;;;5.20;3.78;;;25.90;56.40;;;;;;2079601;28;20655;-73
2022/06/24 04:21:54;;;;;;;7.47;3.72;;;25.90;56.50;;;;;;2088037;28;20036;-73
2022/06/24 04:22:55;;;;;;;5.30;3.60;;;26.00;56.10;;;;;;2088034;28;20033;-72
2022/06/24 04:23:56;;;;;;;5.18;3.85;;;26.10;56.20;;;;;;2079598;28;20037;-73
2022/06/24 04:24:56;;;;;;;4.97;3.90;;;26.20;56.00;;;;;;2087860;28;20083;-73
2022/06/24 04:25:57;;;;;;;5.80;3.40;;;26.40;55.60;;;;;;2088622;28;20036;-73
2022/06/24 04:26:58;;;;;;;4.85;3.70;;;26.60;55.20;;;;;;2088688;28;20671;-73
2022/06/24 04:27:58;;;;;;;5.65;3.50;;;26.80;54.80;;;;;;2088384;28;20640;-73
2022/06/24 04:28:59;;;;;;;5.55;3.70;;;27.00;54.40;;;;;;2088251;28;20057;-73
2022/06/24 04:30:04;;;;;;;4.10;3.50;;;27.10;54.10;;;;;;2087792;28;20792;-74
2022/06/24 04:31:05;;;;;;;4.88;3.60;;;27.40;53.70;;;;;;2088036;28;20043;-73
2022/06/24 04:32:06;;;;;;;4.22;3.67;;;27.40;53.00;;;;;;2088536;28;20394;-73
2022/06/24 04:33:06;;;;;;;4.78;3.40;;;27.40;53.20;;;;;;2088767;28;20078;-75
2022/06/24 04:34:07;;;;;;;4.82;3.30;;;27.60;52.90;;;;;;2089210;28;20110;-73
2022/06/24 04:35:08;;;;;;;4.05;3.60;;;27.80;52.20;;;;;;2088721;28;20045;-74
2022/06/24 04:36:13;;;;;;;3.97;3.33;;;27.80;52.00;;;;;;2088297;28;20028;-75
2022/06/24 04:37:14;;;;;;;4.88;3.50;;;28.00;52.00;;;;;;2080581;28;20096;-74
2022/06/24 04:38:15;;;;;;;3.70;3.40;;;28.20;51.70;;;;;;2088109;28;20041;-74
2022/06/24 04:39:15;;;;;;;3.90;3.50;;;28.30;51.20;;;;;;2087802;28;20036;-74
2022/06/24 04:40:16;;;;;;;5.43;3.60;;;28.40;50.70;;;;;;2087986;28;20171;-74
2022/06/24 04:41:17;;;;;;;4.47;3.67;;;28.30;51.00;;;;;;2088750;28;20048;-74
2022/06/24 04:42:17;;;;;;;4.85;3.63;;;28.40;50.80;;;;;;2088805;28;20025;-73
2022/06/24 04:43:18;;;;;;;4.53;3.60;;;28.40;50.70;;;;;;2088651;28;20041;-73
2022/06/24 04:44:19;;;;;;;8.80;4.45;;;28.30;50.60;;;;;;2089025;28;20033;-72
2022/06/24 04:45:20;;;;;;;8.23;4.20;;;28.30;50.60;;;;;;2088680;28;20349;-73
2022/06/24 04:46:21;;;;;;;7.22;3.55;;;28.30;50.70;;;;;;2088111;28;20029;-71
2022/06/24 04:47:22;;;;;;;5.85;3.60;;;28.30;50.90;;;;;;2088265;28;20029;-74
2022/06/24 04:48:23;;;;;;;6.00;3.85;;;28.50;50.70;;;;;;2087683;28;20036;-74
2022/06/24 04:49:24;;;;;;;7.13;4.00;;;28.70;50.50;;;;;;2088087;28;20107;-72
2022/06/24 04:50:24;;;;;;;3.70;3.40;;;28.70;49.90;;;;;;2088134;28;20124;-72
2022/06/24 04:51:27;;;;;;;7.68;3.70;;;28.80;50.00;;;;;;2087951;28;20059;-72
2022/06/24 04:52:28;;;;;;;5.15;3.55;;;28.90;49.40;;;;;;2087735;28;20020;-72
2022/06/24 04:53:30;;;;;;;5.10;3.63;;;28.70;49.70;;;;;;2088461;28;20475;-73
2022/06/24 04:54:31;;;;;;;8.52;3.50;;;28.70;49.70;;;;;;2088540;28;20104;-72
2022/06/24 04:55:32;;;;;;;6.85;3.50;;;28.70;49.80;;;;;;2088487;28;20498;-73
2022/06/24 04:56:32;;;;;;;6.90;4.40;;;28.90;49.50;;;;;;2088816;28;20017;-73
2022/06/24 04:57:33;;;;;;;5.28;3.60;;;29.00;49.10;;;;;;2087874;28;20483;-74
2022/06/24 04:58:34;;;;;;;5.68;3.60;;;28.80;49.10;;;;;;2087584;28;20410;-73
2022/06/24 04:59:35;;;;;;;6.07;3.92;;;28.70;49.20;;;;;;2087738;28;20474;-73
2022/06/24 05:00:37;;;;;;;6.82;3.72;;;28.50;49.60;;;;;;2079431;28;20108;-73
2022/06/24 05:01:37;;;;;;;6.13;3.78;;;28.40;49.80;;;;;;2087487;28;20021;-73
2022/06/24 05:02:38;;;;;;;6.18;3.70;;;28.40;49.90;;;;;;2088117;28;20021;-73
2022/06/24 05:03:39;;;;;;;5.20;3.53;;;28.40;49.90;;;;;;2079310;28;20061;-73
2022/06/24 05:04:40;;;;;;;6.57;4.00;;;28.40;49.80;;;;;;2079224;28;20032;-74
2022/06/24 05:05:40;;;;;;;4.57;3.95;;;28.60;49.70;;;;;;2087518;28;20457;-75
2022/06/24 05:06:41;;;;;;;4.70;3.88;;;28.80;49.30;;;;;;2088415;28;20029;-73
2022/06/24 05:07:42;;;;;;;6.30;4.05;;;28.80;49.10;;;;;;2088107;28;20017;-73
2022/06/24 05:08:43;;;;;;;7.78;4.00;;;28.70;48.80;;;;;;2088084;28;20074;-74
2022/06/24 05:09:46;;;;;;;8.35;4.15;;;28.60;49.00;;;;;;2080350;28;20502;-74
2022/06/24 05:10:47;;;;;;;7.47;4.28;;;28.30;49.50;;;;;;2080497;28;20064;-73
2022/06/24 05:11:50;;;;;;;5.47;4.38;;;28.20;49.90;;;;;;2089039;28;20025;-73
2022/06/24 05:12:51;;;;;;;5.70;3.90;;;28.10;50.20;;;;;;2089203;28;20036;-73
2022/06/24 05:13:52;;;;;;;6.10;3.78;;;28.00;50.10;;;;;;2088352;28;20032;-74
2022/06/24 05:14:52;;;;;;;5.53;3.75;;;28.00;50.30;;;;;;2088994;28;20021;-73
2022/06/24 05:15:54;;;;;;;5.43;3.70;;;28.30;50.20;;;;;;2088830;28;20395;-73
2022/06/24 05:16:55;;;;;;;5.47;3.88;;;28.60;49.90;;;;;;2088722;28;20033;-74
2022/06/24 05:17:55;;;;;;;5.45;3.80;;;28.90;49.30;;;;;;2089115;28;20095;-73
2022/06/24 05:18:56;;;;;;;6.47;4.30;;;29.00;48.90;;;;;;2080381;28;20045;-73
2022/06/24 05:19:56;;;;;;;7.70;4.15;;;28.70;49.00;;;;;;2072224;28;20022;-73
2022/06/24 05:20:57;;;;;;;8.32;4.03;;;28.50;49.20;;;;;;2072485;28;20117;-73
2022/06/24 05:21:58;;;;;;;7.18;4.10;;;28.60;49.20;;;;;;2087891;28;20033;-73
2022/06/24 05:22:58;;;;;;;8.48;4.07;;;28.50;49.40;;;;;;2088013;28;20029;-74
2022/06/24 05:23:59;;;;;;;6.40;3.92;;;28.30;49.90;;;;;;2087634;28;20032;-73
2022/06/24 05:25:01;;;;;;;6.00;3.92;;;28.50;49.70;;;;;;2088298;28;20029;-73
2022/06/24 05:26:01;;;;;;;6.50;3.97;;;28.70;49.40;;;;;;2088282;28;20104;-73
2022/06/24 05:27:02;;;;;;;5.95;3.97;;;28.90;49.00;;;;;;2079055;28;20053;-72